Columbia Metropolitan Airport
KCAE : rendu visible

Aérodrome :











RETROUVEZ-NOUS SUR...

 
LOGIN :

S'inscrire | Disclaimer

   EN    FR    IT 

 









Légende :    VFR   VFR Marginal   IFR   IFR Intensif   IFR Très Intensif
Visi : 
Plafond : 
>= 8 km
>= 3000ft
5 à 8 km
1000 à 3000 ft
1500m à 5 km
500 à 1000 ft
800 à 1500m
200 à 500 ft
< 800m
< 200 ft
Symboles :   Orages  Brouillard  Fortes neiges  Fortes précipitations  Vent > 20 kt






- Altitude de l'aérodrome : 236 ft
- Code IATA : CAE


KCAE - Columbia Metropolitan

DERNIER METAR :
  • 211556Z 11007KT 10SM FEW250 13/03 A3031 RMK AO2 SLP263 T01280028

METARs EXPIRÉS :
  • 211456Z 10004KT 10SM FEW250 11/03 A3034 RMK AO2 SLP272 T01060033 53008
  • 211356Z 00000KT 8SM FEW150 07/04 A3032 RMK AO2 SLP267 T00670039

TAF KCAE
Valide du 21 à 15h jusqu'au 22 à 12h UTC


211442Z 2115/2212 12005KT P6SM SCT250
FM220000 VRB03KT P6SM BKN250



MET'MAP, la Météo Aéronautique d'un coup d'oeil ! - Copyright ORBIFLY Décembre 2007 - Disclaimer

ORBIFLY MET'MAP TEAM :

Programmation & Développement : Alexandra Zaïnal
Conception & Développement : Baudouin d'Aumeries
Co-Programmation & Développement : Marc-Olivier Méhu
Soutien technique & logistique : Manuel Goepfert

Contact : metmap@orbifly.com




SOURCES & CREDITS :

   NOAA       Earth
Advisory